Kezdőlap
METAR-TAF:

METAR-TAF

Repülőterek :

New Delhi, India

földrajzi szélesség: 28-34N, földrajzi hosszúság: 077-07E, magasság: 220 m

Jelenlegi meteorológiai megfigyelések

A jelentés 30 perccel ezelõtt készült, 22:30 UTC
Szélcsend
Hőmérséklet 27°C
Páratartalom 48%
Légköri nyomás 1005 hPa
Látótávolság: 3000 m
Száraz légköri homály

METAR: VIDP 212230Z 00000KT 3000 HZ NSC 27/15 Q1005 NOSIG

Idő: 04:30 (23:00 UTC)

Előrejelzés

A jelentés 3 órával és 0 perccel ezelõtt készült, 20:00 UTC
Az előrejelzés 21-én 21 óra UTC és 22-én 06 óra UTC között érvényes
Északi szél kt
Látótávolság: 2500 m
Kevés felhő 10000 lábon
Száraz légköri homály
22-én 04 óra UTC és 22-én 06 óra UTC között fokozatosan kialakuló
Nyugati szél 8 kt
Látótávolság: 3000 m
Száraz légköri homály

TAF: VIDP 212000Z 2121/2206 00000KT 2500 HZ FEW100 BECMG 2204/2206 27008KT 3000 HZ

Meteorológiai megfigyelések és előrejelzések több, mint 4000 repülőtéren (METAR és TAF jelentéseket).

A térképen piros és sárga pontok jelzik az elérhető meteorológiai állomásokat.

Mozgassa az egeret a pont fölött, hogy megjelenjen az állomás neve.

Azután kattintson az időjárási megfigyelések és előrejelzések megtekintéséhez.

A térkép megváltoztatása: kattintson a fekete keresztel jelölt zöld gombra ráközelítéshez, a vonallal jelölt zöld gombra távolításhoz, vagy a zöld nyilakra a szomszédos térképek eléréséhez.


METAR-TAF: